sensor_id;sensor_type;location;lat;lon;timestamp;P1;durP1;ratioP1;P2;durP2;ratioP2
3141;SDS011;1581;51.568;6.998;2022-09-29T00:01:35;11.60;;;7.57;;
3141;SDS011;1581;51.568;6.998;2022-09-29T00:04:05;15.43;;;7.80;;
3141;SDS011;1581;51.568;6.998;2022-09-29T00:06:36;14.50;;;6.80;;
3141;SDS011;1581;51.568;6.998;2022-09-29T00:09:08;10.77;;;7.90;;
3141;SDS011;1581;51.568;6.998;2022-09-29T00:11:39;13.80;;;7.57;;
3141;SDS011;1581;51.568;6.998;2022-09-29T00:14:09;14.30;;;7.83;;
3141;SDS011;1581;51.568;6.998;2022-09-29T00:16:38;9.07;;;6.73;;
3141;SDS011;1581;51.568;6.998;2022-09-29T00:19:07;10.83;;;7.73;;
3141;SDS011;1581;51.568;6.998;2022-09-29T00:21:47;16.27;;;6.93;;
3141;SDS011;1581;51.568;6.998;2022-09-29T00:24:21;10.80;;;7.33;;
3141;SDS011;1581;51.568;6.998;2022-09-29T00:26:51;9.57;;;8.30;;
3141;SDS011;1581;51.568;6.998;2022-09-29T00:29:21;15.57;;;8.37;;
3141;SDS011;1581;51.568;6.998;2022-09-29T00:31:52;11.70;;;7.33;;
3141;SDS011;1581;51.568;6.998;2022-09-29T00:34:21;9.40;;;7.53;;
3141;SDS011;1581;51.568;6.998;2022-09-29T00:36:52;9.30;;;6.83;;
3141;SDS011;1581;51.568;6.998;2022-09-29T00:39:21;8.90;;;7.50;;
3141;SDS011;1581;51.568;6.998;2022-09-29T00:41:51;7.57;;;6.53;;
3141;SDS011;1581;51.568;6.998;2022-09-29T00:47:37;8.43;;;6.33;;
3141;SDS011;1581;51.568;6.998;2022-09-29T00:50:10;9.17;;;6.80;;
3141;SDS011;1581;51.568;6.998;2022-09-29T00:52:49;10.00;;;7.03;;
3141;SDS011;1581;51.568;6.998;2022-09-29T00:55:24;7.87;;;7.00;;
3141;SDS011;1581;51.568;6.998;2022-09-29T00:57:57;8.07;;;7.23;;
3141;SDS011;1581;51.568;6.998;2022-09-29T01:00:29;10.27;;;7.17;;
3141;SDS011;1581;51.568;6.998;2022-09-29T01:03:03;11.13;;;6.90;;
3141;SDS011;1581;51.568;6.998;2022-09-29T01:05:37;11.70;;;7.13;;
3141;SDS011;1581;51.568;6.998;2022-09-29T01:08:15;12.40;;;6.67;;
3141;SDS011;1581;51.568;6.998;2022-09-29T01:10:51;11.20;;;6.77;;
3141;SDS011;1581;51.568;6.998;2022-09-29T01:13:22;11.77;;;7.03;;
3141;SDS011;1581;51.568;6.998;2022-09-29T01:15:59;10.67;;;7.77;;
3141;SDS011;1581;51.568;6.998;2022-09-29T01:18:29;9.77;;;6.83;;
3141;SDS011;1581;51.568;6.998;2022-09-29T01:21:00;8.87;;;7.30;;
3141;SDS011;1581;51.568;6.998;2022-09-29T01:27:04;12.27;;;8.30;;
3141;SDS011;1581;51.568;6.998;2022-09-29T01:30:18;11.20;;;8.30;;
3141;SDS011;1581;51.568;6.998;2022-09-29T01:32:59;19.40;;;10.50;;
3141;SDS011;1581;51.568;6.998;2022-09-29T01:35:52;21.77;;;10.73;;
3141;SDS011;1581;51.568;6.998;2022-09-29T01:38:41;16.30;;;9.37;;
3141;SDS011;1581;51.568;6.998;2022-09-29T01:41:27;10.77;;;7.83;;
3141;SDS011;1581;51.568;6.998;2022-09-29T01:44:05;11.20;;;7.67;;
3141;SDS011;1581;51.568;6.998;2022-09-29T01:46:46;13.80;;;8.37;;
3141;SDS011;1581;51.568;6.998;2022-09-29T01:49:22;10.70;;;7.83;;
3141;SDS011;1581;51.568;6.998;2022-09-29T01:51:57;11.60;;;7.97;;
3141;SDS011;1581;51.568;6.998;2022-09-29T01:54:33;11.07;;;8.60;;
3141;SDS011;1581;51.568;6.998;2022-09-29T01:57:11;12.00;;;8.03;;
3141;SDS011;1581;51.568;6.998;2022-09-29T01:59:47;12.67;;;7.17;;
3141;SDS011;1581;51.568;6.998;2022-09-29T02:02:21;12.17;;;7.43;;
3141;SDS011;1581;51.568;6.998;2022-09-29T02:05:00;13.90;;;7.30;;
3141;SDS011;1581;51.568;6.998;2022-09-29T02:07:36;10.90;;;7.83;;
3141;SDS011;1581;51.568;6.998;2022-09-29T02:10:09;10.10;;;8.17;;
3141;SDS011;1581;51.568;6.998;2022-09-29T02:12:43;8.80;;;6.90;;
3141;SDS011;1581;51.568;6.998;2022-09-29T02:15:17;15.23;;;8.03;;
3141;SDS011;1581;51.568;6.998;2022-09-29T02:17:51;9.60;;;6.47;;
3141;SDS011;1581;51.568;6.998;2022-09-29T02:20:27;10.17;;;6.33;;
3141;SDS011;1581;51.568;6.998;2022-09-29T02:22:57;10.27;;;6.20;;
3141;SDS011;1581;51.568;6.998;2022-09-29T02:25:27;13.47;;;7.20;;
3141;SDS011;1581;51.568;6.998;2022-09-29T02:27:57;9.63;;;7.17;;
3141;SDS011;1581;51.568;6.998;2022-09-29T02:30:26;19.53;;;8.27;;
3141;SDS011;1581;51.568;6.998;2022-09-29T02:32:56;11.10;;;7.43;;
3141;SDS011;1581;51.568;6.998;2022-09-29T02:35:27;17.43;;;7.03;;
3141;SDS011;1581;51.568;6.998;2022-09-29T02:38:14;10.37;;;6.20;;
3141;SDS011;1581;51.568;6.998;2022-09-29T02:40:53;9.23;;;6.93;;
3141;SDS011;1581;51.568;6.998;2022-09-29T02:43:36;11.03;;;7.17;;
3141;SDS011;1581;51.568;6.998;2022-09-29T02:46:32;9.10;;;6.37;;
3141;SDS011;1581;51.568;6.998;2022-09-29T02:49:21;11.53;;;6.83;;
3141;SDS011;1581;51.568;6.998;2022-09-29T02:52:09;10.27;;;7.23;;
3141;SDS011;1581;51.568;6.998;2022-09-29T02:54:55;8.63;;;6.80;;
3141;SDS011;1581;51.568;6.998;2022-09-29T02:57:41;6.93;;;6.10;;
3141;SDS011;1581;51.568;6.998;2022-09-29T03:00:17;8.43;;;7.07;;
3141;SDS011;1581;51.568;6.998;2022-09-29T03:02:47;9.17;;;6.60;;
3141;SDS011;1581;51.568;6.998;2022-09-29T03:05:19;11.70;;;6.93;;
3141;SDS011;1581;51.568;6.998;2022-09-29T03:07:52;8.60;;;7.70;;
3141;SDS011;1581;51.568;6.998;2022-09-29T03:10:21;10.97;;;6.77;;
3141;SDS011;1581;51.568;6.998;2022-09-29T03:12:50;9.93;;;7.00;;
3141;SDS011;1581;51.568;6.998;2022-09-29T03:15:19;13.13;;;7.07;;
3141;SDS011;1581;51.568;6.998;2022-09-29T03:17:47;13.47;;;9.07;;
3141;SDS011;1581;51.568;6.998;2022-09-29T03:20:15;12.90;;;6.93;;
3141;SDS011;1581;51.568;6.998;2022-09-29T03:22:42;9.73;;;7.60;;
3141;SDS011;1581;51.568;6.998;2022-09-29T03:25:12;8.17;;;6.50;;
3141;SDS011;1581;51.568;6.998;2022-09-29T03:27:40;12.07;;;6.40;;
3141;SDS011;1581;51.568;6.998;2022-09-29T03:30:08;10.67;;;7.30;;
3141;SDS011;1581;51.568;6.998;2022-09-29T03:32:37;8.50;;;6.63;;
3141;SDS011;1581;51.568;6.998;2022-09-29T03:35:11;18.73;;;7.43;;
3141;SDS011;1581;51.568;6.998;2022-09-29T03:37:39;12.03;;;7.10;;
3141;SDS011;1581;51.568;6.998;2022-09-29T03:40:07;7.53;;;6.23;;
3141;SDS011;1581;51.568;6.998;2022-09-29T03:42:41;8.63;;;7.20;;
3141;SDS011;1581;51.568;6.998;2022-09-29T03:45:12;11.53;;;7.57;;
3141;SDS011;1581;51.568;6.998;2022-09-29T03:47:50;8.27;;;7.43;;
3141;SDS011;1581;51.568;6.998;2022-09-29T03:50:23;13.57;;;7.73;;
3141;SDS011;1581;51.568;6.998;2022-09-29T03:53:00;8.70;;;7.33;;
3141;SDS011;1581;51.568;6.998;2022-09-29T03:55:32;10.50;;;7.37;;
3141;SDS011;1581;51.568;6.998;2022-09-29T03:58:23;9.73;;;7.70;;
3141;SDS011;1581;51.568;6.998;2022-09-29T04:00:57;9.93;;;7.27;;
3141;SDS011;1581;51.568;6.998;2022-09-29T04:03:34;12.23;;;7.20;;
3141;SDS011;1581;51.568;6.998;2022-09-29T04:06:07;11.33;;;7.93;;
3141;SDS011;1581;51.568;6.998;2022-09-29T04:08:38;13.23;;;8.20;;
3141;SDS011;1581;51.568;6.998;2022-09-29T04:11:15;14.00;;;7.27;;
3141;SDS011;1581;51.568;6.998;2022-09-29T04:13:53;9.53;;;7.20;;
3141;SDS011;1581;51.568;6.998;2022-09-29T04:16:38;11.87;;;7.47;;
3141;SDS011;1581;51.568;6.998;2022-09-29T04:19:15;12.30;;;8.53;;
3141;SDS011;1581;51.568;6.998;2022-09-29T04:21:55;9.87;;;7.53;;
3141;SDS011;1581;51.568;6.998;2022-09-29T04:24:30;13.13;;;7.43;;
3141;SDS011;1581;51.568;6.998;2022-09-29T04:27:03;12.33;;;8.30;;
3141;SDS011;1581;51.568;6.998;2022-09-29T04:29:35;9.33;;;7.40;;
3141;SDS011;1581;51.568;6.998;2022-09-29T04:32:03;11.33;;;8.30;;
3141;SDS011;1581;51.568;6.998;2022-09-29T04:34:35;17.60;;;7.40;;
3141;SDS011;1581;51.568;6.998;2022-09-29T04:37:12;13.50;;;8.23;;
3141;SDS011;1581;51.568;6.998;2022-09-29T04:39:43;11.57;;;8.23;;
3141;SDS011;1581;51.568;6.998;2022-09-29T04:42:17;12.20;;;8.07;;
3141;SDS011;1581;51.568;6.998;2022-09-29T04:45:02;12.57;;;7.40;;
3141;SDS011;1581;51.568;6.998;2022-09-29T04:47:43;11.83;;;7.73;;
3141;SDS011;1581;51.568;6.998;2022-09-29T04:50:19;11.30;;;8.00;;
3141;SDS011;1581;51.568;6.998;2022-09-29T04:52:51;11.47;;;8.00;;
3141;SDS011;1581;51.568;6.998;2022-09-29T04:55:19;10.40;;;7.47;;
3141;SDS011;1581;51.568;6.998;2022-09-29T04:57:48;10.37;;;6.83;;
3141;SDS011;1581;51.568;6.998;2022-09-29T05:00:18;11.10;;;7.80;;
3141;SDS011;1581;51.568;6.998;2022-09-29T05:02:46;10.70;;;7.83;;
3141;SDS011;1581;51.568;6.998;2022-09-29T05:05:13;11.70;;;8.67;;
3141;SDS011;1581;51.568;6.998;2022-09-29T05:07:47;13.70;;;8.10;;
3141;SDS011;1581;51.568;6.998;2022-09-29T05:10:15;13.03;;;8.60;;
3141;SDS011;1581;51.568;6.998;2022-09-29T05:12:46;12.50;;;8.83;;
3141;SDS011;1581;51.568;6.998;2022-09-29T05:15:18;10.50;;;8.43;;
3141;SDS011;1581;51.568;6.998;2022-09-29T05:17:47;12.30;;;8.07;;
3141;SDS011;1581;51.568;6.998;2022-09-29T05:20:15;12.20;;;8.10;;
3141;SDS011;1581;51.568;6.998;2022-09-29T05:22:43;9.37;;;7.70;;
3141;SDS011;1581;51.568;6.998;2022-09-29T05:25:13;15.63;;;8.80;;
3141;SDS011;1581;51.568;6.998;2022-09-29T05:27:46;9.97;;;8.67;;
3141;SDS011;1581;51.568;6.998;2022-09-29T05:30:17;11.50;;;7.93;;
3141;SDS011;1581;51.568;6.998;2022-09-29T05:32:53;12.63;;;8.00;;
3141;SDS011;1581;51.568;6.998;2022-09-29T05:35:21;10.30;;;7.90;;
3141;SDS011;1581;51.568;6.998;2022-09-29T05:37:49;12.33;;;8.70;;
3141;SDS011;1581;51.568;6.998;2022-09-29T05:40:22;10.30;;;7.90;;
3141;SDS011;1581;51.568;6.998;2022-09-29T05:42:54;13.33;;;8.70;;
3141;SDS011;1581;51.568;6.998;2022-09-29T05:45:26;9.60;;;7.70;;
3141;SDS011;1581;51.568;6.998;2022-09-29T05:47:57;13.43;;;8.60;;
3141;SDS011;1581;51.568;6.998;2022-09-29T05:50:26;10.63;;;8.00;;
3141;SDS011;1581;51.568;6.998;2022-09-29T05:53:08;10.03;;;7.80;;
3141;SDS011;1581;51.568;6.998;2022-09-29T05:55:47;10.97;;;8.23;;
3141;SDS011;1581;51.568;6.998;2022-09-29T05:58:15;11.83;;;8.50;;
3141;SDS011;1581;51.568;6.998;2022-09-29T06:00:43;17.17;;;8.60;;
3141;SDS011;1581;51.568;6.998;2022-09-29T06:03:19;19.03;;;8.83;;
3141;SDS011;1581;51.568;6.998;2022-09-29T06:05:47;13.70;;;8.93;;
3141;SDS011;1581;51.568;6.998;2022-09-29T06:08:15;13.67;;;9.50;;
3141;SDS011;1581;51.568;6.998;2022-09-29T06:10:42;17.60;;;9.60;;
3141;SDS011;1581;51.568;6.998;2022-09-29T06:13:10;12.47;;;8.80;;
3141;SDS011;1581;51.568;6.998;2022-09-29T06:15:38;12.83;;;8.80;;
3141;SDS011;1581;51.568;6.998;2022-09-29T06:18:05;11.40;;;8.40;;
3141;SDS011;1581;51.568;6.998;2022-09-29T06:20:35;15.93;;;7.53;;
3141;SDS011;1581;51.568;6.998;2022-09-29T06:23:03;13.33;;;8.90;;
3141;SDS011;1581;51.568;6.998;2022-09-29T06:25:31;10.17;;;8.27;;
3141;SDS011;1581;51.568;6.998;2022-09-29T06:27:59;14.67;;;8.27;;
3141;SDS011;1581;51.568;6.998;2022-09-29T06:30:27;18.37;;;9.73;;
3141;SDS011;1581;51.568;6.998;2022-09-29T06:32:54;12.73;;;9.80;;
3141;SDS011;1581;51.568;6.998;2022-09-29T06:35:22;12.27;;;8.90;;
3141;SDS011;1581;51.568;6.998;2022-09-29T06:38:08;17.30;;;10.50;;
3141;SDS011;1581;51.568;6.998;2022-09-29T06:40:37;16.43;;;9.80;;
3141;SDS011;1581;51.568;6.998;2022-09-29T06:43:04;15.67;;;9.40;;
3141;SDS011;1581;51.568;6.998;2022-09-29T06:45:32;11.53;;;8.73;;
3141;SDS011;1581;51.568;6.998;2022-09-29T06:48:02;15.97;;;8.93;;
3141;SDS011;1581;51.568;6.998;2022-09-29T06:50:30;14.33;;;9.17;;
3141;SDS011;1581;51.568;6.998;2022-09-29T06:52:57;15.07;;;9.80;;
3141;SDS011;1581;51.568;6.998;2022-09-29T06:58:46;21.03;;;11.87;;
3141;SDS011;1581;51.568;6.998;2022-09-29T07:01:13;20.30;;;12.57;;
3141;SDS011;1581;51.568;6.998;2022-09-29T07:03:41;20.33;;;12.47;;
3141;SDS011;1581;51.568;6.998;2022-09-29T07:06:09;17.03;;;11.20;;
3141;SDS011;1581;51.568;6.998;2022-09-29T07:08:39;17.97;;;12.10;;
3141;SDS011;1581;51.568;6.998;2022-09-29T07:11:09;19.80;;;11.93;;
3141;SDS011;1581;51.568;6.998;2022-09-29T07:13:37;19.80;;;11.00;;
3141;SDS011;1581;51.568;6.998;2022-09-29T07:16:05;17.43;;;11.90;;
3141;SDS011;1581;51.568;6.998;2022-09-29T07:18:36;22.03;;;12.73;;
3141;SDS011;1581;51.568;6.998;2022-09-29T07:21:06;20.90;;;11.70;;
3141;SDS011;1581;51.568;6.998;2022-09-29T07:23:36;20.70;;;12.73;;
3141;SDS011;1581;51.568;6.998;2022-09-29T07:26:06;20.43;;;11.80;;
3141;SDS011;1581;51.568;6.998;2022-09-29T07:28:35;19.90;;;12.53;;
3141;SDS011;1581;51.568;6.998;2022-09-29T07:31:04;17.07;;;12.03;;
3141;SDS011;1581;51.568;6.998;2022-09-29T07:33:34;24.40;;;12.77;;
3141;SDS011;1581;51.568;6.998;2022-09-29T07:36:02;28.30;;;12.83;;
3141;SDS011;1581;51.568;6.998;2022-09-29T07:38:30;17.80;;;11.40;;
3141;SDS011;1581;51.568;6.998;2022-09-29T07:41:01;22.73;;;12.30;;
3141;SDS011;1581;51.568;6.998;2022-09-29T07:43:31;15.10;;;11.60;;
3141;SDS011;1581;51.568;6.998;2022-09-29T07:46:00;16.13;;;11.63;;
3141;SDS011;1581;51.568;6.998;2022-09-29T07:48:28;21.80;;;11.70;;
3141;SDS011;1581;51.568;6.998;2022-09-29T07:51:00;20.80;;;11.03;;
3141;SDS011;1581;51.568;6.998;2022-09-29T07:53:28;20.40;;;11.00;;
3141;SDS011;1581;51.568;6.998;2022-09-29T07:56:00;17.60;;;11.53;;
3141;SDS011;1581;51.568;6.998;2022-09-29T07:58:29;19.67;;;12.60;;
3141;SDS011;1581;51.568;6.998;2022-09-29T08:00:59;15.70;;;10.80;;
3141;SDS011;1581;51.568;6.998;2022-09-29T08:03:29;15.73;;;11.00;;
3141;SDS011;1581;51.568;6.998;2022-09-29T08:05:57;20.10;;;12.07;;
3141;SDS011;1581;51.568;6.998;2022-09-29T08:08:25;17.60;;;10.90;;
3141;SDS011;1581;51.568;6.998;2022-09-29T08:10:59;20.30;;;11.00;;
3141;SDS011;1581;51.568;6.998;2022-09-29T08:13:28;17.63;;;11.10;;
3141;SDS011;1581;51.568;6.998;2022-09-29T08:15:59;17.63;;;11.10;;
3141;SDS011;1581;51.568;6.998;2022-09-29T08:18:27;16.47;;;11.97;;
3141;SDS011;1581;51.568;6.998;2022-09-29T08:20:56;17.00;;;11.20;;
3141;SDS011;1581;51.568;6.998;2022-09-29T08:23:23;16.20;;;9.70;;
3141;SDS011;1581;51.568;6.998;2022-09-29T08:25:57;24.07;;;10.70;;
3141;SDS011;1581;51.568;6.998;2022-09-29T08:28:27;20.30;;;12.37;;
3141;SDS011;1581;51.568;6.998;2022-09-29T08:30:55;16.97;;;10.40;;
3141;SDS011;1581;51.568;6.998;2022-09-29T08:33:28;18.83;;;11.67;;
3141;SDS011;1581;51.568;6.998;2022-09-29T08:35:56;17.40;;;11.23;;
3141;SDS011;1581;51.568;6.998;2022-09-29T08:38:24;17.17;;;9.83;;
3141;SDS011;1581;51.568;6.998;2022-09-29T08:40:53;18.70;;;10.07;;
3141;SDS011;1581;51.568;6.998;2022-09-29T08:43:23;18.00;;;10.30;;
3141;SDS011;1581;51.568;6.998;2022-09-29T08:45:56;14.90;;;9.27;;
3141;SDS011;1581;51.568;6.998;2022-09-29T08:48:32;20.67;;;10.33;;
3141;SDS011;1581;51.568;6.998;2022-09-29T08:51:11;18.07;;;9.70;;
3141;SDS011;1581;51.568;6.998;2022-09-29T08:53:49;12.73;;;9.40;;
3141;SDS011;1581;51.568;6.998;2022-09-29T08:56:27;13.77;;;8.20;;
3141;SDS011;1581;51.568;6.998;2022-09-29T08:58:57;11.27;;;8.40;;
3141;SDS011;1581;51.568;6.998;2022-09-29T09:01:28;14.73;;;9.13;;
3141;SDS011;1581;51.568;6.998;2022-09-29T09:07:04;17.60;;;9.83;;
3141;SDS011;1581;51.568;6.998;2022-09-29T09:09:45;11.23;;;7.97;;
3141;SDS011;1581;51.568;6.998;2022-09-29T09:12:31;14.73;;;7.80;;
3141;SDS011;1581;51.568;6.998;2022-09-29T09:18:31;15.93;;;7.70;;
3141;SDS011;1581;51.568;6.998;2022-09-29T09:21:27;11.07;;;7.93;;
3141;SDS011;1581;51.568;6.998;2022-09-29T09:24:08;15.40;;;8.10;;
3141;SDS011;1581;51.568;6.998;2022-09-29T09:26:46;9.73;;;7.20;;
3141;SDS011;1581;51.568;6.998;2022-09-29T09:29:16;11.50;;;6.87;;
3141;SDS011;1581;51.568;6.998;2022-09-29T09:31:51;10.10;;;6.33;;
3141;SDS011;1581;51.568;6.998;2022-09-29T09:34:25;9.30;;;7.10;;
3141;SDS011;1581;51.568;6.998;2022-09-29T09:36:58;16.83;;;8.10;;
3141;SDS011;1581;51.568;6.998;2022-09-29T09:39:30;12.47;;;6.17;;
3141;SDS011;1581;51.568;6.998;2022-09-29T09:42:02;8.17;;;6.47;;
3141;SDS011;1581;51.568;6.998;2022-09-29T09:44:41;9.27;;;6.57;;
3141;SDS011;1581;51.568;6.998;2022-09-29T09:47:17;11.33;;;5.53;;
3141;SDS011;1581;51.568;6.998;2022-09-29T09:49:51;11.67;;;5.50;;
3141;SDS011;1581;51.568;6.998;2022-09-29T09:52:26;6.73;;;5.57;;
3141;SDS011;1581;51.568;6.998;2022-09-29T09:55:04;7.73;;;5.47;;
3141;SDS011;1581;51.568;6.998;2022-09-29T09:57:39;7.70;;;5.43;;
3141;SDS011;1581;51.568;6.998;2022-09-29T10:00:31;8.67;;;5.20;;
3141;SDS011;1581;51.568;6.998;2022-09-29T10:03:05;11.07;;;5.57;;
3141;SDS011;1581;51.568;6.998;2022-09-29T10:05:35;9.53;;;4.37;;
3141;SDS011;1581;51.568;6.998;2022-09-29T10:08:09;14.93;;;3.93;;
3141;SDS011;1581;51.568;6.998;2022-09-29T10:10:47;8.43;;;3.87;;
3141;SDS011;1581;51.568;6.998;2022-09-29T10:13:14;4.13;;;3.30;;
3141;SDS011;1581;51.568;6.998;2022-09-29T10:15:43;5.27;;;3.93;;
3141;SDS011;1581;51.568;6.998;2022-09-29T10:18:17;5.77;;;4.23;;
3141;SDS011;1581;51.568;6.998;2022-09-29T10:20:51;3.60;;;3.20;;
3141;SDS011;1581;51.568;6.998;2022-09-29T10:23:22;4.63;;;3.07;;
3141;SDS011;1581;51.568;6.998;2022-09-29T10:25:54;3.70;;;3.10;;
3141;SDS011;1581;51.568;6.998;2022-09-29T10:28:37;7.77;;;3.97;;
3141;SDS011;1581;51.568;6.998;2022-09-29T10:31:19;4.77;;;3.50;;
3141;SDS011;1581;51.568;6.998;2022-09-29T10:33:52;5.00;;;3.97;;
3141;SDS011;1581;51.568;6.998;2022-09-29T10:36:23;5.40;;;3.50;;
3141;SDS011;1581;51.568;6.998;2022-09-29T10:38:55;6.43;;;3.53;;
3141;SDS011;1581;51.568;6.998;2022-09-29T10:41:25;4.10;;;2.93;;
3141;SDS011;1581;51.568;6.998;2022-09-29T10:43:55;6.37;;;3.00;;
3141;SDS011;1581;51.568;6.998;2022-09-29T10:46:50;3.30;;;2.50;;
3141;SDS011;1581;51.568;6.998;2022-09-29T10:49:21;4.10;;;2.57;;
3141;SDS011;1581;51.568;6.998;2022-09-29T10:51:58;4.97;;;2.60;;
3141;SDS011;1581;51.568;6.998;2022-09-29T10:54:31;2.70;;;2.40;;
3141;SDS011;1581;51.568;6.998;2022-09-29T10:57:10;3.10;;;2.30;;
3141;SDS011;1581;51.568;6.998;2022-09-29T10:59:45;2.90;;;2.37;;
3141;SDS011;1581;51.568;6.998;2022-09-29T11:02:16;8.13;;;2.73;;
3141;SDS011;1581;51.568;6.998;2022-09-29T11:04:52;2.50;;;2.30;;
3141;SDS011;1581;51.568;6.998;2022-09-29T11:07:21;4.73;;;2.40;;
3141;SDS011;1581;51.568;6.998;2022-09-29T11:09:50;2.23;;;1.50;;
3141;SDS011;1581;51.568;6.998;2022-09-29T11:12:29;3.07;;;1.80;;
3141;SDS011;1581;51.568;6.998;2022-09-29T11:15:20;6.57;;;2.53;;
3141;SDS011;1581;51.568;6.998;2022-09-29T11:17:51;5.60;;;2.30;;
3141;SDS011;1581;51.568;6.998;2022-09-29T11:20:19;6.20;;;2.50;;
3141;SDS011;1581;51.568;6.998;2022-09-29T11:25:59;2.20;;;2.00;;
3141;SDS011;1581;51.568;6.998;2022-09-29T11:28:54;6.90;;;2.03;;
3141;SDS011;1581;51.568;6.998;2022-09-29T11:31:47;4.20;;;2.27;;
3141;SDS011;1581;51.568;6.998;2022-09-29T11:34:49;2.73;;;2.20;;
3141;SDS011;1581;51.568;6.998;2022-09-29T11:37:39;3.13;;;2.37;;
3141;SDS011;1581;51.568;6.998;2022-09-29T11:40:25;3.37;;;2.00;;
3141;SDS011;1581;51.568;6.998;2022-09-29T11:43:11;2.33;;;2.00;;
3141;SDS011;1581;51.568;6.998;2022-09-29T11:45:55;3.57;;;2.40;;
3141;SDS011;1581;51.568;6.998;2022-09-29T11:48:43;4.83;;;2.93;;
3141;SDS011;1581;51.568;6.998;2022-09-29T11:51:33;13.63;;;3.93;;
3141;SDS011;1581;51.568;6.998;2022-09-29T11:54:33;12.27;;;4.70;;
3141;SDS011;1581;51.568;6.998;2022-09-29T11:57:25;10.20;;;5.80;;
3141;SDS011;1581;51.568;6.998;2022-09-29T12:00:09;21.73;;;8.40;;
3141;SDS011;1581;51.568;6.998;2022-09-29T12:02:51;15.10;;;7.13;;
3141;SDS011;1581;51.568;6.998;2022-09-29T12:05:52;14.83;;;7.40;;
3141;SDS011;1581;51.568;6.998;2022-09-29T12:08:47;12.90;;;6.87;;
3141;SDS011;1581;51.568;6.998;2022-09-29T12:11:29;17.00;;;6.00;;
3141;SDS011;1581;51.568;6.998;2022-09-29T12:14:10;9.53;;;4.90;;
3141;SDS011;1581;51.568;6.998;2022-09-29T12:16:50;12.67;;;6.20;;
3141;SDS011;1581;51.568;6.998;2022-09-29T12:19:23;9.17;;;4.73;;
3141;SDS011;1581;51.568;6.998;2022-09-29T12:21:55;9.77;;;5.07;;
3141;SDS011;1581;51.568;6.998;2022-09-29T12:24:31;7.03;;;3.90;;
3141;SDS011;1581;51.568;6.998;2022-09-29T12:27:04;17.73;;;4.23;;
3141;SDS011;1581;51.568;6.998;2022-09-29T12:29:42;11.23;;;5.33;;
3141;SDS011;1581;51.568;6.998;2022-09-29T12:32:17;12.33;;;6.07;;
3141;SDS011;1581;51.568;6.998;2022-09-29T12:34:54;10.17;;;5.70;;
3141;SDS011;1581;51.568;6.998;2022-09-29T12:37:26;9.77;;;5.77;;
3141;SDS011;1581;51.568;6.998;2022-09-29T12:40:04;9.17;;;6.40;;
3141;SDS011;1581;51.568;6.998;2022-09-29T12:42:47;16.27;;;6.10;;
3141;SDS011;1581;51.568;6.998;2022-09-29T12:45:34;8.30;;;5.57;;
3141;SDS011;1581;51.568;6.998;2022-09-29T12:48:20;9.47;;;4.80;;
3141;SDS011;1581;51.568;6.998;2022-09-29T12:51:00;11.50;;;5.73;;
3141;SDS011;1581;51.568;6.998;2022-09-29T12:53:36;7.93;;;4.60;;
3141;SDS011;1581;51.568;6.998;2022-09-29T12:56:17;7.37;;;4.63;;
3141;SDS011;1581;51.568;6.998;2022-09-29T12:58:52;9.33;;;4.60;;
3141;SDS011;1581;51.568;6.998;2022-09-29T13:01:29;18.87;;;5.00;;
3141;SDS011;1581;51.568;6.998;2022-09-29T13:07:20;11.43;;;4.53;;
3141;SDS011;1581;51.568;6.998;2022-09-29T13:16:46;3.00;;;2.70;;
3141;SDS011;1581;51.568;6.998;2022-09-29T13:19:42;4.33;;;2.90;;
3141;SDS011;1581;51.568;6.998;2022-09-29T13:23:04;4.03;;;2.60;;
3141;SDS011;1581;51.568;6.998;2022-09-29T13:26:00;5.30;;;2.80;;
3141;SDS011;1581;51.568;6.998;2022-09-29T13:28:54;4.93;;;2.47;;
3141;SDS011;1581;51.568;6.998;2022-09-29T13:31:28;3.83;;;2.60;;
3141;SDS011;1581;51.568;6.998;2022-09-29T13:34:03;10.73;;;2.53;;
3141;SDS011;1581;51.568;6.998;2022-09-29T13:36:35;4.60;;;2.33;;
3141;SDS011;1581;51.568;6.998;2022-09-29T13:39:18;3.43;;;2.50;;
3141;SDS011;1581;51.568;6.998;2022-09-29T13:41:51;1.97;;;1.87;;
3141;SDS011;1581;51.568;6.998;2022-09-29T13:44:21;1.88;;;1.60;;
3141;SDS011;1581;51.568;6.998;2022-09-29T13:46:51;8.07;;;2.53;;
3141;SDS011;1581;51.568;6.998;2022-09-29T13:49:25;2.85;;;2.08;;
3141;SDS011;1581;51.568;6.998;2022-09-29T13:51:57;4.40;;;1.90;;
3141;SDS011;1581;51.568;6.998;2022-09-29T13:54:54;3.90;;;1.85;;
3141;SDS011;1581;51.568;6.998;2022-09-29T13:57:49;4.72;;;1.95;;
3141;SDS011;1581;51.568;6.998;2022-09-29T14:00:18;5.03;;;2.25;;
3141;SDS011;1581;51.568;6.998;2022-09-29T14:02:59;3.80;;;1.55;;
3141;SDS011;1581;51.568;6.998;2022-09-29T14:05:52;5.60;;;1.90;;
3141;SDS011;1581;51.568;6.998;2022-09-29T14:08:38;4.13;;;1.90;;
3141;SDS011;1581;51.568;6.998;2022-09-29T14:11:16;3.63;;;1.77;;
3141;SDS011;1581;51.568;6.998;2022-09-29T14:13:54;3.75;;;1.95;;
3141;SDS011;1581;51.568;6.998;2022-09-29T14:16:33;5.63;;;2.13;;
3141;SDS011;1581;51.568;6.998;2022-09-29T14:19:30;1.90;;;1.80;;
3141;SDS011;1581;51.568;6.998;2022-09-29T14:25:27;5.88;;;1.50;;
3141;SDS011;1581;51.568;6.998;2022-09-29T14:31:20;3.78;;;2.40;;
3141;SDS011;1581;51.568;6.998;2022-09-29T14:33:57;3.42;;;1.63;;
3141;SDS011;1581;51.568;6.998;2022-09-29T14:36:27;5.63;;;1.45;;
3141;SDS011;1581;51.568;6.998;2022-09-29T14:38:58;4.53;;;2.60;;
3141;SDS011;1581;51.568;6.998;2022-09-29T14:41:27;2.13;;;1.83;;
3141;SDS011;1581;51.568;6.998;2022-09-29T14:44:07;6.95;;;2.30;;
3141;SDS011;1581;51.568;6.998;2022-09-29T14:46:50;4.43;;;1.48;;
3141;SDS011;1581;51.568;6.998;2022-09-29T14:50:02;8.48;;;1.55;;
3141;SDS011;1581;51.568;6.998;2022-09-29T14:53:18;1.77;;;1.00;;
3141;SDS011;1581;51.568;6.998;2022-09-29T14:56:15;2.65;;;0.90;;
3141;SDS011;1581;51.568;6.998;2022-09-29T14:58:58;1.40;;;0.93;;
3141;SDS011;1581;51.568;6.998;2022-09-29T15:01:54;1.83;;;1.05;;
3141;SDS011;1581;51.568;6.998;2022-09-29T15:04:41;1.73;;;1.10;;
3141;SDS011;1581;51.568;6.998;2022-09-29T15:07:12;0.90;;;0.90;;
3141;SDS011;1581;51.568;6.998;2022-09-29T15:09:43;7.38;;;1.48;;
3141;SDS011;1581;51.568;6.998;2022-09-29T15:12:13;1.95;;;1.15;;
3141;SDS011;1581;51.568;6.998;2022-09-29T15:14:47;2.33;;;1.25;;
3141;SDS011;1581;51.568;6.998;2022-09-29T15:17:22;1.98;;;1.10;;
3141;SDS011;1581;51.568;6.998;2022-09-29T15:20:04;3.58;;;1.30;;
3141;SDS011;1581;51.568;6.998;2022-09-29T15:22:54;8.45;;;1.35;;
3141;SDS011;1581;51.568;6.998;2022-09-29T15:25:38;1.45;;;1.00;;
3141;SDS011;1581;51.568;6.998;2022-09-29T15:28:10;3.47;;;1.17;;
3141;SDS011;1581;51.568;6.998;2022-09-29T15:30:44;5.07;;;1.90;;
3141;SDS011;1581;51.568;6.998;2022-09-29T15:33:19;4.95;;;1.60;;
3141;SDS011;1581;51.568;6.998;2022-09-29T15:35:51;3.03;;;1.38;;
3141;SDS011;1581;51.568;6.998;2022-09-29T15:38:28;3.42;;;1.20;;
3141;SDS011;1581;51.568;6.998;2022-09-29T15:40:59;1.10;;;0.90;;
3141;SDS011;1581;51.568;6.998;2022-09-29T15:43:37;1.58;;;1.05;;
3141;SDS011;1581;51.568;6.998;2022-09-29T15:46:14;9.00;;;1.40;;
3141;SDS011;1581;51.568;6.998;2022-09-29T15:49:05;4.85;;;1.40;;
3141;SDS011;1581;51.568;6.998;2022-09-29T15:51:37;3.53;;;1.50;;
3141;SDS011;1581;51.568;6.998;2022-09-29T15:54:09;2.95;;;1.08;;
3141;SDS011;1581;51.568;6.998;2022-09-29T15:56:37;1.70;;;1.42;;
3141;SDS011;1581;51.568;6.998;2022-09-29T15:59:19;3.78;;;1.52;;
3141;SDS011;1581;51.568;6.998;2022-09-29T16:02:04;4.38;;;1.30;;
3141;SDS011;1581;51.568;6.998;2022-09-29T16:04:39;2.25;;;1.02;;
3141;SDS011;1581;51.568;6.998;2022-09-29T16:07:13;1.77;;;1.00;;
3141;SDS011;1581;51.568;6.998;2022-09-29T16:09:47;1.47;;;1.30;;
3141;SDS011;1581;51.568;6.998;2022-09-29T16:12:17;2.07;;;1.57;;
3141;SDS011;1581;51.568;6.998;2022-09-29T16:14:46;1.63;;;1.30;;
3141;SDS011;1581;51.568;6.998;2022-09-29T16:17:20;3.53;;;1.20;;
3141;SDS011;1581;51.568;6.998;2022-09-29T16:19:49;3.00;;;1.67;;
3141;SDS011;1581;51.568;6.998;2022-09-29T16:22:22;2.87;;;1.70;;
3141;SDS011;1581;51.568;6.998;2022-09-29T16:24:53;3.17;;;1.60;;
3141;SDS011;1581;51.568;6.998;2022-09-29T16:27:39;3.27;;;2.43;;
3141;SDS011;1581;51.568;6.998;2022-09-29T16:30:25;10.00;;;4.53;;
3141;SDS011;1581;51.568;6.998;2022-09-29T16:33:11;11.40;;;5.00;;